createdAt,value
2022-10-16T00:04:00.940Z,180
2022-10-16T00:09:01.081Z,180
2022-10-16T00:14:00.468Z,180
2022-10-16T00:19:00.854Z,248
2022-10-16T00:24:00.557Z,248
2022-10-16T00:29:00.389Z,180
2022-10-16T00:34:01.095Z,180
2022-10-16T00:44:00.251Z,135
2022-10-16T00:49:00.762Z,202
2022-10-16T00:54:00.265Z,202
2022-10-16T00:59:00.704Z,158
2022-10-16T01:04:01.206Z,158
2022-10-16T01:09:00.367Z,225
2022-10-16T01:14:00.473Z,225
2022-10-16T01:19:01.198Z,180
2022-10-16T01:24:00.724Z,180
2022-10-16T01:29:01.322Z,225
2022-10-16T01:34:01.094Z,225
2022-10-16T01:39:00.581Z,135
2022-10-16T01:44:00.589Z,135
2022-10-16T01:49:00.282Z,112
2022-10-16T01:54:00.565Z,112
2022-10-16T01:59:00.497Z,135
2022-10-16T02:04:01.355Z,135
2022-10-16T02:09:01.023Z,158
2022-10-16T02:14:00.741Z,158
2022-10-16T02:19:00.899Z,158
2022-10-16T02:24:00.480Z,158
2022-10-16T02:29:01.386Z,135
2022-10-16T02:34:00.597Z,135
2022-10-16T02:39:01.262Z,202
2022-10-16T02:44:00.732Z,202
2022-10-16T02:49:00.898Z,225
2022-10-16T02:54:01.121Z,225
2022-10-16T02:59:01.011Z,158
2022-10-16T03:04:01.194Z,158
2022-10-16T03:09:00.841Z,158
2022-10-16T03:14:00.678Z,158
2022-10-16T03:19:00.785Z,135
2022-10-16T03:24:00.352Z,135
2022-10-16T03:29:00.772Z,135
2022-10-16T03:34:00.835Z,135
2022-10-16T03:39:01.264Z,135
2022-10-16T03:44:01.258Z,135
2022-10-16T03:49:07.543Z,135
2022-10-16T03:54:00.742Z,135
2022-10-16T03:59:00.985Z,135
2022-10-16T04:04:00.607Z,135
2022-10-16T04:09:00.963Z,135
2022-10-16T04:14:00.929Z,135
2022-10-16T04:19:01.314Z,135
2022-10-16T04:24:01.290Z,135
2022-10-16T06:59:01.318Z,180
2022-10-16T07:04:00.834Z,180
2022-10-16T07:09:01.327Z,180
2022-10-16T07:14:00.603Z,180
2022-10-16T07:19:01.705Z,180
2022-10-16T07:24:01.264Z,180
2022-10-16T07:29:01.082Z,202
2022-10-16T07:34:01.106Z,202
2022-10-16T07:39:01.387Z,225
2022-10-16T07:44:01.475Z,225
2022-10-16T07:49:00.842Z,180
2022-10-16T07:54:00.451Z,180
2022-10-16T07:59:01.123Z,225
2022-10-16T08:04:00.936Z,225
2022-10-16T08:09:00.496Z,180
2022-10-16T08:14:01.040Z,180
2022-10-16T08:19:01.466Z,248
2022-10-16T08:24:01.207Z,248
2022-10-16T08:29:00.923Z,180
2022-10-16T08:34:01.441Z,180
2022-10-16T08:39:00.976Z,248
2022-10-16T08:44:00.633Z,248
2022-10-16T08:49:01.360Z,202
2022-10-16T08:54:01.083Z,202
2022-10-16T08:59:03.476Z,202
2022-10-16T09:04:01.223Z,202
2022-10-16T09:09:00.913Z,225
2022-10-16T09:14:01.097Z,225
2022-10-16T09:19:01.471Z,225
2022-10-16T09:24:01.222Z,225
2022-10-16T09:29:01.146Z,225
2022-10-16T09:34:01.311Z,225
2022-10-16T09:39:01.093Z,180
2022-10-16T09:44:01.098Z,180
2022-10-16T09:49:00.727Z,225
2022-10-16T09:54:00.846Z,225
2022-10-16T09:59:01.374Z,270
2022-10-16T10:04:00.761Z,270
2022-10-16T10:09:01.459Z,270
2022-10-16T10:14:01.102Z,270
2022-10-16T10:19:00.581Z,248
2022-10-16T10:24:00.940Z,248
2022-10-16T10:29:00.628Z,202
2022-10-16T10:34:01.406Z,202
2022-10-16T10:39:01.099Z,180
2022-10-16T10:44:01.464Z,180
2022-10-16T10:49:00.672Z,202
2022-10-16T10:54:01.318Z,202
2022-10-16T10:59:00.577Z,248
2022-10-16T11:04:03.046Z,248
2022-10-16T11:09:02.206Z,225
2022-10-16T11:14:01.616Z,225
2022-10-16T11:19:01.011Z,248
2022-10-16T11:24:00.612Z,248
2022-10-16T11:29:01.488Z,225
2022-10-16T11:39:01.238Z,225
2022-10-16T11:44:01.367Z,225
2022-10-16T11:49:00.797Z,202
2022-10-16T11:54:01.305Z,202
2022-10-16T11:59:01.529Z,270
2022-10-16T12:04:01.234Z,270
2022-10-16T12:09:01.522Z,225
2022-10-16T12:14:01.361Z,225
2022-10-16T12:19:01.447Z,225
2022-10-16T12:24:00.613Z,225
2022-10-16T12:29:01.234Z,225
2022-10-16T12:34:00.632Z,225
2022-10-16T12:39:00.906Z,270
2022-10-16T12:44:00.755Z,270
2022-10-16T12:49:08.566Z,225
2022-10-16T12:54:00.900Z,225
2022-10-16T12:59:01.272Z,225
2022-10-16T13:04:00.643Z,225
2022-10-16T13:09:01.537Z,225
2022-10-16T13:14:01.418Z,225
2022-10-16T13:19:01.038Z,225
2022-10-16T13:24:00.888Z,225
2022-10-16T13:29:01.880Z,270
2022-10-16T13:34:01.636Z,270
2022-10-16T13:39:01.450Z,248
2022-10-16T13:44:00.955Z,248
2022-10-16T13:49:01.802Z,248
2022-10-16T13:54:01.674Z,248
2022-10-16T13:59:01.124Z,225
2022-10-16T14:04:00.866Z,225
2022-10-16T14:09:01.309Z,225
2022-10-16T14:14:01.364Z,225
2022-10-16T14:19:01.290Z,225
2022-10-16T14:24:01.105Z,225
2022-10-16T14:29:01.107Z,270
2022-10-16T14:34:00.738Z,270
2022-10-16T14:39:01.485Z,270
2022-10-16T14:44:01.619Z,270
2022-10-16T14:49:01.628Z,225
2022-10-16T14:54:00.964Z,225
2022-10-16T14:59:01.581Z,248
2022-10-16T15:04:01.542Z,248
2022-10-16T15:09:01.247Z,225
2022-10-16T15:14:02.087Z,225
2022-10-16T15:19:01.308Z,248
2022-10-16T15:24:01.555Z,248
2022-10-16T15:29:01.548Z,225
2022-10-16T15:34:01.689Z,225
2022-10-16T15:39:00.777Z,248
2022-10-16T15:44:01.253Z,248
2022-10-16T15:49:01.257Z,248
2022-10-16T15:54:01.065Z,248
2022-10-16T15:59:01.608Z,248
2022-10-16T16:04:04.666Z,248
2022-10-16T16:14:01.383Z,248
2022-10-16T16:19:01.167Z,248
2022-10-16T16:24:00.904Z,248
2022-10-16T16:29:01.957Z,180
2022-10-16T16:34:01.351Z,180
2022-10-16T16:39:01.235Z,180
2022-10-16T16:44:01.745Z,180
2022-10-16T16:49:01.118Z,180
2022-10-16T16:54:01.436Z,180
2022-10-16T16:59:01.605Z,180
2022-10-16T17:04:00.861Z,180
2022-10-16T17:09:01.210Z,180
2022-10-16T17:14:01.581Z,180
2022-10-16T17:19:00.918Z,180
2022-10-16T17:24:01.622Z,180
2022-10-16T17:29:01.546Z,180
2022-10-16T17:34:01.195Z,180
2022-10-16T17:39:01.298Z,180
2022-10-16T17:44:01.585Z,180
2022-10-16T17:49:01.959Z,180
2022-10-16T17:54:01.639Z,180
2022-10-16T17:59:01.271Z,180
2022-10-16T18:04:00.957Z,180
2022-10-16T18:09:01.775Z,180
2022-10-16T18:14:01.563Z,180
2022-10-16T18:19:00.979Z,180
2022-10-16T18:24:01.540Z,180
2022-10-16T18:29:01.291Z,180
2022-10-16T18:34:01.837Z,180
2022-10-16T18:39:01.019Z,180
2022-10-16T18:44:00.994Z,180
2022-10-16T18:49:01.908Z,180
2022-10-16T18:54:01.585Z,180
2022-10-16T18:59:01.048Z,180
2022-10-16T19:04:01.624Z,180
2022-10-16T19:09:01.309Z,180
2022-10-16T19:14:01.097Z,180
2022-10-16T19:19:01.842Z,180
2022-10-16T19:24:01.813Z,180
2022-10-16T19:29:01.669Z,180
2022-10-16T19:34:01.320Z,180
2022-10-16T19:39:01.254Z,180
2022-10-16T19:44:01.762Z,180
2022-10-16T19:49:01.232Z,180
2022-10-16T19:54:01.476Z,180
2022-10-16T19:59:01.620Z,225
2022-10-16T20:04:01.785Z,225
2022-10-16T20:09:01.035Z,225
2022-10-16T20:14:01.419Z,225
2022-10-16T20:19:01.784Z,225
2022-10-16T20:24:01.193Z,225
2022-10-16T20:29:01.469Z,225
2022-10-16T20:34:01.759Z,225
2022-10-16T20:39:01.778Z,225
2022-10-16T20:44:01.289Z,225
2022-10-16T20:49:27.931Z,225
2022-10-16T20:54:01.324Z,225
2022-10-16T20:59:01.748Z,225
2022-10-16T21:04:01.291Z,225
2022-10-16T21:09:01.666Z,225
2022-10-16T21:14:01.452Z,225
2022-10-16T21:19:01.647Z,225
2022-10-16T21:24:01.414Z,225
2022-10-16T21:29:01.909Z,225
2022-10-16T21:34:01.280Z,225
2022-10-16T21:39:01.689Z,225
2022-10-16T21:44:02.008Z,225
2022-10-16T21:49:01.285Z,225
2022-10-16T21:54:01.088Z,225
2022-10-16T21:59:01.470Z,225
2022-10-16T22:04:01.733Z,225
2022-10-16T22:09:01.435Z,225
2022-10-16T22:14:00.975Z,225
2022-10-16T22:19:01.551Z,225
2022-10-16T22:24:00.995Z,225
2022-10-16T22:29:01.943Z,225
2022-10-16T22:34:01.272Z,225
2022-10-16T22:39:01.044Z,225
2022-10-16T22:44:01.388Z,225
2022-10-16T22:49:01.689Z,225
2022-10-16T22:54:01.880Z,225
2022-10-16T22:59:01.159Z,158
2022-10-16T23:04:01.835Z,158
2022-10-16T23:09:01.088Z,158
2022-10-16T23:14:11.498Z,158
2022-10-16T23:19:01.876Z,158
2022-10-16T23:24:01.432Z,158
2022-10-16T23:29:01.989Z,158
2022-10-16T23:34:01.385Z,158
2022-10-16T23:39:01.155Z,158
2022-10-16T23:44:01.415Z,158
2022-10-16T23:49:01.654Z,158
2022-10-16T23:54:01.157Z,158
2022-10-16T23:59:01.573Z,158
